Terminal Aerodrome Forecast
Issued by NWS

Current Version | Previous Version | Text Only | Print | Product List | Glossary On
Versions: 1 2 3 4 5 6 7 8 9 10 11 12 13 14 15 16 17 18
000
FTUS43 KDVN 131846 AAA
TAFBRL
TAF AMD
KBRL 131846Z 1319/1418 31024G35KT P6SM BKN015
     FM140100 33015G24KT P6SM BKN025
     FM140600 35011KT P6SM BKN035
     FM140900 35005KT P6SM BKN050=

USA.gov is the U.S. government's official web portal to all federal, state and local government web resources and services.